AirNav   Air Wisconsin pilot careers
 
 1345 users online  

F86 Caldwell Parish Airport
Columbia, Louisiana, USA

GOING TO COLUMBIA?


FAA INFORMATION EFFECTIVE 25 APRIL 2019

Location

FAA Identifier: F86
Lat/Long: 32-07-19.8000N / 092-03-16.2000W
32-07.330000N / 092-03.270000W
32.1221667 / -92.0545000
(estimated)
Elevation: 66.9 ft. / 20.4 m (surveyed)
Variation: 04E (1985)
From city: 2 miles NE of COLUMBIA, LA
Time zone: UTC -5 (UTC -6 during Standard Time)
Zip code: 71418

Airport Operations

Airport use: Open to the public
Activation date: 04/1964
Control tower: no
ARTCC: FORT WORTH CENTER
FSS: DE RIDDER FLIGHT SERVICE STATION
NOTAMs facility: DRI (NOTAM-D service available)
Attendance: UNATNDD
Wind indicator: lighted
Segmented circle: yes
Lights: REIL RWY 01/19 OPR CONS; ACTVT MIRL RWY 01/19 - CTAF.
Beacon: white-green (lighted land airport)
Operates sunset to sunrise.

Airport Communications

CTAF: 122.9

Nearby radio navigation aids

VOR radial/distance  VOR name  Freq  Var
MLUr179/23.7MONROE VORTAC117.2003E
SWBr072/32.9SAWMILL VOR/DME113.7502E

 
NDB name  Hdg/Dist  Freq  Var  ID
BASTROP190/38.932903EBQP -... --.- .--.
RUSTON134/39.836803EROQ .-. --- --.-

Airport Services

Parking: tiedowns
Airframe service: NONE
Powerplant service: NONE
Bottled oxygen: NONE
Bulk oxygen: NONE

Runway Information

Runway 1/19

Dimensions: 3501 x 75 ft. / 1067 x 23 m
Surface: asphalt, in fair condition
GRASS GROWING THROUGH CRACKS.
Weight bearing capacity: 
Single wheel: 6.0
Runway edge lights: medium intensity
RUNWAY 1  RUNWAY 19
Latitude: 32-07.047528N32-07.611090N
Longitude: 092-03.344247W092-03.196722W
Elevation: 66.8 ft.63.0 ft.
Traffic pattern: leftleft
Runway heading: 009 magnetic, 013 true189 magnetic, 193 true
Markings: basic, in fair conditionbasic, in fair condition
Visual slope indicator: 2-light PAPI on left (3.50 degrees glide path)2-light PAPI on left (3.00 degrees glide path)
Runway end identifier lights: yesyes
Touchdown point: yes, no lightsyes, no lights
Obstructions: 81 ft. trees, 1580 ft. from runway, 151 ft. right of centerline, 17:1 slope to clear
4 FT FENCE 197 FT FM END OF RWY.
none

Airport Ownership and Management from official FAA records

Ownership: Publicly-owned
Owner: CALDWELL PARISH POLICE JURY
PO BOX 1737
COLUMBIA, LA 71418
Phone 318-649-2681
Manager: REED KEAHEY
PO BOX 1139
COLUMBIA, LA 71418
Phone (318) 331-3888

Airport Operational Statistics

Aircraft based on the field: 10
Single engine airplanes: 10
    
Aircraft operations: avg 38/day *
73% local general aviation
27% transient general aviation
* for 12-month period ending 01 March 2018

Additional Remarks

BIRDS IN VCNTY OF AP.
FOREIGN OBJECTS & DEBRIS PRESENT ON APRON. GRASS GROWING THROUGH CRACKS.
FOR CD CTC MONROE APCH AT 318-327-5641, IF UNAVBL, CTC FSS

Instrument Procedures

There are no published instrument procedures at F86.

Some nearby airports with instrument procedures:

KMLU - Monroe Regional Airport (23 nm N)
M79 - John H Hooks Jr Memorial Airport (26 nm NE)
0R5 - David G Joyce Airport (32 nm W)
F88 - Jonesboro Airport (35 nm W)
KRSN - Ruston Regional Airport (36 nm NW)
 
Loc | Ops | Rwys | IFR | FBO | Links
Com | Nav | Svcs | Stats | Notes
Area around F86 (Caldwell Parish Airport)
 
Road maps at: MapQuest Bing Google
 
Aerial photo
WARNING: Photo may not be current or correct
Aerial photo of F86 (Caldwell Parish Airport)
Photo by Bob Burns
Photo taken 02-Jan-2011
looking southeast.

Do you have a better or more recent aerial photo of Caldwell Parish Airport that you would like to share? If so, please send us your photo.

 
Sectional chart

 
Airport distance calculator
Flying to Caldwell Parish Airport? Find the distance to fly.

From to F86

Sunrise and sunset
Times for 25-Apr-2019
 Local
(UTC-5)
 Zulu
(UTC)
Morning civil twilight06:0311:03
Sunrise06:2911:29
Sunset19:4300:43
Evening civil twilight20:0901:09

Current date and time
Zulu (UTC)  25-Apr-2019 20:53:25
Local (UTC-5)  25-Apr-2019 15:53:25
 
METAR
KMLU 
24nm N 
251953Z 26010KT 10SM SCT042 25/16 A2976 RMK AO2 SLP077 T02500161
KRSN 
36nm NW 
252035Z AUTO 27006KT 10SM SCT038 BKN065 OVC075 23/14 A2981 RMK AO2 T02310139
KBQP 
39nm N 
252035Z AUTO 25007KT 10SM SCT040 SCT046 SCT065 25/15 A2974 RMK AO2 T02520152
K0R4 
44nm SE 
252035Z AUTO 18008KT 10SM SCT020 SCT025 BKN030 23/20 A2975 RMK AO2 T02340199
KESF 
45nm S 
251953Z AUTO 28012G18KT 10SM SCT038 SCT047 26/17 A2978 RMK AO2 SLP083 T02560167
TAF
KMLU 
24nm N 
251726Z 2518/2618 28013KT P6SM BKN050 TEMPO 2518/2520 BKN020 FM260000 28012KT P6SM SCT250 FM261200 34008KT P6SM SKC
NOTAMs
Click for the latest NOTAMs
NOTAMs are issued by the DoD/FAA and will open in a separate window not controlled by AirNav.

 

 
 

Would you like to see your business listed on this page?

 If your business provides an interesting product or service to pilots, flight crews, aircraft, or users of the Caldwell Parish Airport, you should consider listing it here.  To start the listing process, click on the button below
 
Add a business
 

Other Pages about Caldwell Parish Airport

Update a link
 
Copyright © AirNav, LLC. All rights reserved. Privacy Policy  Contact